Time;durP1;ratioP1;P1;durP2;ratioP2;P2;SDS_P1;SDS_P2;PMS_P1;PMS_P2;Temp;Humidity;BMP_temperature;BMP_pressure;BME280_temperature;BME280_humidity;BME280_pressure;Samples;Min_cycle;Max_cycle;Signal;HPM_P1;HPM_P2
2023/10/04 00:01:47;;;;;;;5.53;1.58;;;13.40;99.90;;;;;;4898729;29;20056;-63
2023/10/04 00:04:14;;;;;;;3.83;1.55;;;13.40;99.90;;;;;;4895541;29;20056;-63
2023/10/04 00:06:41;;;;;;;4.40;1.73;;;13.30;99.90;;;;;;4898392;29;20056;-63
2023/10/04 00:09:09;;;;;;;3.25;1.58;;;13.30;99.90;;;;;;4890540;29;20045;-63
2023/10/04 00:11:37;;;;;;;4.55;1.70;;;13.30;99.90;;;;;;4898521;29;20095;-63
2023/10/04 00:14:05;;;;;;;5.03;1.70;;;13.20;99.90;;;;;;4898207;29;20301;-63
2023/10/04 00:16:32;;;;;;;2.50;1.30;;;13.10;99.90;;;;;;4891168;29;20501;-63
2023/10/04 00:19:00;;;;;;;4.35;1.52;;;13.10;99.90;;;;;;4904750;29;20053;-63
2023/10/04 00:21:26;;;;;;;2.53;1.58;;;13.10;99.90;;;;;;4897526;29;20059;-63
2023/10/04 00:23:53;;;;;;;4.32;1.50;;;13.00;99.90;;;;;;4894464;29;20144;-63
2023/10/04 00:26:20;;;;;;;5.50;1.55;;;12.90;99.90;;;;;;4898191;29;20127;-63
2023/10/04 00:28:48;;;;;;;4.47;1.75;;;12.90;99.90;;;;;;4889341;29;20048;-63
2023/10/04 00:31:15;;;;;;;2.58;1.50;;;12.90;99.90;;;;;;4880918;29;20076;-63
2023/10/04 00:33:43;;;;;;;5.97;1.50;;;12.90;99.90;;;;;;4894263;29;20044;-63
2023/10/04 00:36:13;;;;;;;3.55;1.30;;;12.90;99.90;;;;;;4898207;29;20478;-63
2023/10/04 00:38:40;;;;;;;3.00;1.38;;;12.90;99.90;;;;;;4880481;29;20053;-63
2023/10/04 00:41:09;;;;;;;2.85;1.40;;;12.80;99.90;;;;;;4878104;29;20498;-63
2023/10/04 00:43:52;;;;;;;3.67;1.08;;;12.80;99.90;;;;;;4878188;29;20063;-63
2023/10/04 00:46:20;;;;;;;9.35;1.70;;;12.60;99.90;;;;;;4891903;29;20051;-63
2023/10/04 00:48:53;;;;;;;2.70;1.60;;;12.70;99.90;;;;;;4897583;29;20339;-63
2023/10/04 00:51:24;;;;;;;3.67;1.80;;;12.70;99.90;;;;;;4880152;29;20047;-63
2023/10/04 00:53:55;;;;;;;5.10;1.70;;;12.50;99.90;;;;;;4896649;29;20088;-63
2023/10/04 00:56:23;;;;;;;6.45;1.88;;;12.70;99.90;;;;;;4880765;29;20056;-63
2023/10/04 00:58:52;;;;;;;5.68;1.77;;;12.60;99.90;;;;;;4896194;29;20063;-63
2023/10/04 01:01:19;;;;;;;2.47;1.25;;;12.70;99.90;;;;;;4897740;29;20048;-63
2023/10/04 01:03:47;;;;;;;5.40;1.63;;;12.70;99.90;;;;;;4879151;29;20045;-63
2023/10/04 01:06:15;;;;;;;4.50;1.50;;;12.70;99.90;;;;;;4896570;29;20075;-63
2023/10/04 01:08:42;;;;;;;2.72;1.35;;;12.80;99.90;;;;;;4879634;29;20041;-63
2023/10/04 01:11:10;;;;;;;3.88;1.77;;;12.80;99.90;;;;;;4897079;29;20041;-63
2023/10/04 01:13:38;;;;;;;4.75;1.75;;;12.70;99.90;;;;;;4893744;29;20037;-63
2023/10/04 01:16:09;;;;;;;6.15;1.65;;;12.70;99.90;;;;;;4896709;29;20104;-63
2023/10/04 01:18:37;;;;;;;2.20;1.40;;;12.70;99.90;;;;;;4876893;29;20074;-63
2023/10/04 01:21:05;;;;;;;4.13;1.65;;;12.70;99.90;;;;;;4882324;29;20057;-63
2023/10/04 01:23:33;;;;;;;3.53;1.70;;;12.70;99.90;;;;;;4892280;29;20505;-63
2023/10/04 01:26:00;;;;;;;3.95;1.67;;;12.60;99.90;;;;;;4895539;29;20048;-63
2023/10/04 01:28:30;;;;;;;3.28;1.40;;;12.60;99.90;;;;;;4896747;29;20047;-63
2023/10/04 01:31:00;;;;;;;;;;;12.60;99.90;;;;;;4897952;29;20041;-63
2023/10/04 01:33:28;;;;;;;2.58;1.23;;;12.70;99.90;;;;;;4880080;29;19924;-63
2023/10/04 01:35:57;;;;;;;2.90;1.05;;;12.60;99.90;;;;;;4896415;29;20104;-63
2023/10/04 01:38:27;;;;;;;;;;;12.60;99.90;;;;;;4879333;29;20048;-63
2023/10/04 01:40:56;;;;;;;2.75;1.17;;;12.60;99.90;;;;;;4879809;29;19927;-63
2023/10/04 01:43:24;;;;;;;3.55;1.70;;;12.60;99.90;;;;;;4879855;29;20517;-63
2023/10/04 01:45:57;;;;;;;3.15;1.30;;;12.50;99.90;;;;;;4879391;29;20045;-63
2023/10/04 01:48:36;;;;;;;3.97;1.45;;;12.50;99.90;;;;;;4897021;29;20093;-63
2023/10/04 01:51:04;;;;;;;4.20;1.45;;;12.50;99.90;;;;;;4872222;29;20045;-63
2023/10/04 01:53:34;;;;;;;3.35;1.20;;;12.40;99.90;;;;;;4879038;29;20076;-63
2023/10/04 01:56:06;;;;;;;5.07;1.77;;;12.30;99.90;;;;;;4896535;29;20055;-63
2023/10/04 01:58:34;;;;;;;3.22;1.60;;;12.30;99.90;;;;;;4878411;29;20061;-63
2023/10/04 02:01:00;;;;;;;;;;;12.30;99.90;;;;;;4879940;29;20139;-63
2023/10/04 02:03:27;;;;;;;2.45;1.20;;;12.30;99.90;;;;;;4888820;29;19927;-63
2023/10/04 02:05:56;;;;;;;2.97;1.50;;;12.20;99.90;;;;;;4888536;29;20048;-63
2023/10/04 02:08:24;;;;;;;3.25;1.50;;;12.10;99.90;;;;;;4877876;29;20064;-63
2023/10/04 02:10:54;;;;;;;;;;;12.10;99.90;;;;;;4889653;29;20052;-63
2023/10/04 02:13:21;;;;;;;5.75;1.40;;;12.10;99.90;;;;;;4894641;29;19924;-63
2023/10/04 02:15:50;;;;;;;4.55;1.40;;;12.10;99.90;;;;;;4879675;29;20079;-63
2023/10/04 02:18:19;;;;;;;4.05;1.50;;;12.00;99.90;;;;;;4879520;29;20120;-63
2023/10/04 02:20:48;;;;;;;2.90;1.40;;;12.00;99.90;;;;;;4877962;29;20052;-63
2023/10/04 02:23:16;;;;;;;3.00;1.55;;;11.90;99.90;;;;;;4879142;29;20490;-63
2023/10/04 02:25:45;;;;;;;4.47;1.95;;;11.90;99.90;;;;;;4896593;29;20100;-63
2023/10/04 02:28:18;;;;;;;2.63;1.30;;;11.90;99.90;;;;;;4892141;29;20127;-63
2023/10/04 02:30:47;;;;;;;3.17;1.48;;;11.80;99.90;;;;;;4892846;29;20140;-63
2023/10/04 02:33:16;;;;;;;4.32;1.30;;;11.80;99.90;;;;;;4878114;29;20045;-63
2023/10/04 02:35:46;;;;;;;2.88;1.65;;;11.70;99.90;;;;;;4878608;29;20100;-63
2023/10/04 02:38:31;;;;;;;4.90;1.73;;;11.70;99.90;;;;;;4878137;29;20414;-63
2023/10/04 02:41:00;;;;;;;4.95;1.67;;;11.50;99.90;;;;;;4895485;29;20084;-63
2023/10/04 02:43:27;;;;;;;4.22;1.70;;;11.40;99.90;;;;;;4878749;29;20464;-63
2023/10/04 02:45:57;;;;;;;4.65;1.30;;;11.40;99.90;;;;;;4878249;29;20076;-63
2023/10/04 02:48:24;;;;;;;;;;;11.40;99.90;;;;;;4879520;29;20534;-63
2023/10/04 02:50:52;;;;;;;4.63;1.52;;;11.30;99.90;;;;;;4878773;29;19923;-63
2023/10/04 02:53:24;;;;;;;3.63;1.55;;;11.30;99.90;;;;;;4879560;29;20494;-63
2023/10/04 02:55:54;;;;;;;4.45;1.58;;;11.20;99.90;;;;;;4878382;29;20147;-63
2023/10/04 02:58:24;;;;;;;6.53;1.80;;;11.20;99.90;;;;;;4872046;29;20171;-62
2023/10/04 03:00:53;;;;;;;3.28;1.70;;;11.20;99.90;;;;;;4877525;29;20410;-63
2023/10/04 03:03:24;;;;;;;5.00;1.60;;;11.10;99.90;;;;;;4871853;29;20044;-63
2023/10/04 03:05:57;;;;;;;3.45;1.50;;;11.10;99.90;;;;;;4878315;29;20045;-63
2023/10/04 03:08:24;;;;;;;4.82;1.73;;;11.10;99.90;;;;;;4878784;29;20049;-63
2023/10/04 03:10:55;;;;;;;3.17;1.10;;;11.00;99.90;;;;;;4877450;29;20050;-63
2023/10/04 03:13:26;;;;;;;3.33;1.35;;;11.00;99.90;;;;;;4877764;29;20044;-62
2023/10/04 03:15:57;;;;;;;3.20;1.20;;;10.90;99.90;;;;;;4875779;29;20637;-63
2023/10/04 03:18:27;;;;;;;6.18;1.50;;;10.90;99.90;;;;;;4889828;29;20037;-63
2023/10/04 03:21:10;;;;;;;4.80;1.35;;;10.90;99.90;;;;;;4886111;29;20096;-63
2023/10/04 03:23:41;;;;;;;5.28;1.40;;;10.90;99.90;;;;;;4878310;29;20690;-62
2023/10/04 03:26:18;;;;;;;2.63;1.38;;;10.80;99.90;;;;;;4883776;29;20393;-63
2023/10/04 03:28:52;;;;;;;3.78;1.20;;;10.70;99.90;;;;;;4897642;29;20066;-62
2023/10/04 03:31:24;;;;;;;2.83;1.38;;;10.70;99.90;;;;;;4907896;29;20053;-63
2023/10/04 03:33:55;;;;;;;3.50;1.50;;;10.60;99.90;;;;;;4889661;29;20063;-63
2023/10/04 03:36:25;;;;;;;2.20;1.40;;;10.50;99.90;;;;;;4898744;29;20040;-63
2023/10/04 03:38:57;;;;;;;2.25;1.20;;;10.50;99.90;;;;;;4907834;29;20040;-63
2023/10/04 03:41:23;;;;;;;4.57;1.40;;;10.50;99.90;;;;;;4902744;29;20471;-63
2023/10/04 03:43:55;;;;;;;3.13;1.20;;;10.50;99.90;;;;;;4888304;29;20399;-63
2023/10/04 03:46:23;;;;;;;4.28;1.40;;;10.50;99.90;;;;;;4879908;29;20413;-62
2023/10/04 03:48:55;;;;;;;4.40;1.20;;;10.50;99.90;;;;;;4887515;29;20058;-63
2023/10/04 03:51:22;;;;;;;6.72;1.65;;;10.30;99.90;;;;;;4871123;29;20044;-63
2023/10/04 03:53:53;;;;;;;7.03;1.60;;;10.30;99.90;;;;;;4881523;29;20546;-63
2023/10/04 03:56:22;;;;;;;3.83;1.40;;;10.30;99.90;;;;;;4888461;29;20536;-63
2023/10/04 03:58:50;;;;;;;3.53;1.30;;;10.30;99.90;;;;;;4889407;29;20501;-63
2023/10/04 04:01:19;;;;;;;4.40;1.38;;;10.40;99.90;;;;;;4901920;29;20061;-62
2023/10/04 04:03:48;;;;;;;3.80;1.33;;;10.40;99.90;;;;;;4888619;29;20056;-63
2023/10/04 04:06:16;;;;;;;4.57;1.60;;;10.20;99.90;;;;;;4899084;29;20045;-63
2023/10/04 04:08:44;;;;;;;3.55;1.38;;;10.00;99.90;;;;;;4902671;29;20043;-63
2023/10/04 04:11:13;;;;;;;3.10;1.73;;;9.90;99.90;;;;;;4900060;29;20055;-63
2023/10/04 04:13:40;;;;;;;6.72;1.30;;;10.00;99.90;;;;;;4898715;29;20052;-63
2023/10/04 04:16:10;;;;;;;4.28;1.60;;;10.00;99.90;;;;;;4880075;29;20135;-63
2023/10/04 04:18:39;;;;;;;6.03;1.70;;;10.00;99.90;;;;;;4879106;29;20131;-63
2023/10/04 04:21:05;;;;;;;6.05;1.40;;;9.90;99.90;;;;;;4880996;29;20048;-63
2023/10/04 04:23:35;;;;;;;2.13;0.90;;;10.00;99.90;;;;;;4890211;29;20044;-63
2023/10/04 04:26:06;;;;;;;2.50;1.35;;;10.00;99.90;;;;;;4879472;29;20053;-63
2023/10/04 04:28:35;;;;;;;4.28;1.50;;;10.00;99.90;;;;;;4874816;29;20053;-62
2023/10/04 04:31:14;;;;;;;3.88;1.58;;;10.00;99.90;;;;;;4883786;29;20062;-63
2023/10/04 04:33:43;;;;;;;2.13;1.15;;;10.10;99.90;;;;;;4890495;29;20147;-63
2023/10/04 04:36:25;;;;;;;4.25;1.45;;;10.10;99.90;;;;;;4887364;29;20067;-63
2023/10/04 04:38:55;;;;;;;2.78;1.35;;;10.10;99.90;;;;;;4880167;29;20051;-63
2023/10/04 04:41:25;;;;;;;3.88;1.17;;;10.10;99.90;;;;;;4881867;29;20045;-62
2023/10/04 04:43:53;;;;;;;2.25;1.05;;;10.10;99.90;;;;;;4879360;29;20041;-63
2023/10/04 04:46:22;;;;;;;1.95;1.13;;;10.10;99.90;;;;;;4879505;29;20079;-63
2023/10/04 04:48:54;;;;;;;3.53;1.40;;;10.10;99.90;;;;;;4880533;29;20841;-63
2023/10/04 04:51:22;;;;;;;2.53;1.30;;;10.00;99.90;;;;;;4879780;29;20045;-63
2023/10/04 04:53:54;;;;;;;4.10;1.40;;;10.00;99.90;;;;;;4891686;29;20063;-63
2023/10/04 04:56:24;;;;;;;3.25;1.58;;;9.90;99.90;;;;;;4880290;29;20100;-62
2023/10/04 04:58:57;;;;;;;3.47;1.30;;;9.90;99.90;;;;;;4879422;29;20055;-63
2023/10/04 05:01:33;;;;;;;2.92;1.35;;;9.90;99.90;;;;;;4893069;29;20053;-63
2023/10/04 05:04:05;;;;;;;2.75;1.40;;;9.90;99.90;;;;;;4879669;29;20395;-63
2023/10/04 05:06:32;;;;;;;3.25;1.90;;;9.90;99.90;;;;;;4896462;29;20049;-63
2023/10/04 05:09:00;;;;;;;3.28;1.70;;;9.80;99.90;;;;;;4896263;29;20040;-63
2023/10/04 05:11:27;;;;;;;2.83;1.20;;;9.80;99.90;;;;;;4889647;29;20055;-63
2023/10/04 05:13:56;;;;;;;3.53;1.23;;;9.80;99.90;;;;;;4897195;29;20050;-61
2023/10/04 05:16:25;;;;;;;2.97;1.38;;;9.80;99.90;;;;;;4878955;29;20530;-63
2023/10/04 05:18:53;;;;;;;4.07;1.92;;;9.80;99.90;;;;;;4880685;29;20040;-63
2023/10/04 05:21:21;;;;;;;3.85;1.13;;;9.80;99.90;;;;;;4897287;29;20549;-62
2023/10/04 05:23:47;;;;;;;4.00;1.50;;;9.70;99.90;;;;;;4896611;29;20123;-62
2023/10/04 05:26:14;;;;;;;3.35;1.30;;;9.70;99.90;;;;;;4890539;29;20040;-62
2023/10/04 05:28:41;;;;;;;5.03;1.70;;;9.70;99.90;;;;;;4890102;29;20049;-63
2023/10/04 05:31:08;;;;;;;4.07;1.88;;;9.70;99.90;;;;;;4896433;29;20041;-63
2023/10/04 05:33:36;;;;;;;3.08;1.20;;;9.70;99.90;;;;;;4887070;29;20469;-62
2023/10/04 05:36:03;;;;;;;;;;;9.70;99.90;;;;;;4887791;29;20075;-63
2023/10/04 05:38:32;;;;;;;5.03;1.55;;;9.70;99.90;;;;;;4886030;29;19924;-63
2023/10/04 05:41:00;;;;;;;3.55;1.40;;;9.70;99.90;;;;;;4894286;29;20458;-63
2023/10/04 05:43:29;;;;;;;6.13;1.75;;;9.80;99.90;;;;;;4897084;29;20056;-63
2023/10/04 05:45:56;;;;;;;3.45;1.48;;;9.80;99.90;;;;;;4896887;29;20398;-63
2023/10/04 05:48:23;;;;;;;4.10;1.48;;;9.80;99.90;;;;;;4895029;29;20048;-63
2023/10/04 05:50:50;;;;;;;2.53;1.42;;;9.80;99.90;;;;;;4891519;29;20106;-63
2023/10/04 05:53:21;;;;;;;3.67;1.33;;;9.80;99.90;;;;;;4892936;29;20037;-63
2023/10/04 05:55:49;;;;;;;3.97;1.52;;;9.80;99.90;;;;;;4883602;29;20068;-63
2023/10/04 05:58:17;;;;;;;3.40;1.40;;;9.80;99.90;;;;;;4888484;29;20517;-63
2023/10/04 06:00:51;;;;;;;3.65;1.88;;;9.80;99.90;;;;;;4881476;29;20048;-63
2023/10/04 06:03:19;;;;;;;5.55;1.42;;;9.70;99.90;;;;;;4894199;29;20041;-63
2023/10/04 06:05:46;;;;;;;4.38;1.80;;;9.70;99.90;;;;;;4896134;29;20088;-63
2023/10/04 06:08:21;;;;;;;3.78;1.50;;;9.70;99.90;;;;;;4894979;29;20045;-63
2023/10/04 06:10:53;;;;;;;3.17;1.40;;;9.70;99.90;;;;;;4888187;29;20052;-63
2023/10/04 06:13:22;;;;;;;4.68;1.65;;;9.60;99.90;;;;;;4895651;29;20128;-63
2023/10/04 06:15:53;;;;;;;3.15;1.60;;;9.60;99.90;;;;;;4888905;29;20040;-62
2023/10/04 06:18:26;;;;;;;3.78;1.40;;;9.70;99.90;;;;;;4887526;29;20041;-63
2023/10/04 06:20:53;;;;;;;3.05;1.38;;;9.70;99.90;;;;;;4889032;29;20044;-63
2023/10/04 06:23:21;;;;;;;3.22;1.58;;;9.70;99.90;;;;;;4888153;29;20052;-63
2023/10/04 06:25:49;;;;;;;3.05;1.27;;;9.70;99.90;;;;;;4891985;29;20446;-63
2023/10/04 06:28:17;;;;;;;3.40;1.77;;;9.70;99.90;;;;;;4891556;29;20108;-62
2023/10/04 06:30:48;;;;;;;4.82;1.60;;;9.70;99.90;;;;;;4895595;29;20474;-63
2023/10/04 06:33:16;;;;;;;5.15;1.70;;;9.80;99.90;;;;;;4894027;29;20060;-63
2023/10/04 06:35:43;;;;;;;;;;;9.80;99.90;;;;;;4885189;29;20049;-63
2023/10/04 06:38:13;;;;;;;2.17;1.35;;;9.80;99.90;;;;;;4883877;29;19971;-63
2023/10/04 06:40:40;;;;;;;5.40;1.40;;;9.90;99.90;;;;;;4892011;29;20045;-63
2023/10/04 06:43:09;;;;;;;6.22;1.80;;;9.90;99.90;;;;;;4885756;29;20063;-63
2023/10/04 06:45:38;;;;;;;3.33;1.50;;;9.90;99.90;;;;;;4888429;29;20538;-63
2023/10/04 06:48:06;;;;;;;6.53;1.85;;;9.80;99.90;;;;;;4891836;29;20128;-63
2023/10/04 06:50:38;;;;;;;3.55;2.00;;;9.80;99.90;;;;;;4883862;29;20119;-63
2023/10/04 06:53:08;;;;;;;5.22;2.28;;;9.90;99.90;;;;;;4897514;29;20044;-63
2023/10/04 06:55:37;;;;;;;4.55;2.33;;;10.00;99.90;;;;;;4894510;29;20041;-63
2023/10/04 06:58:04;;;;;;;4.10;1.95;;;10.10;99.90;;;;;;4892464;29;20514;-63
2023/10/04 07:00:35;;;;;;;4.65;2.38;;;10.20;99.90;;;;;;4893949;29;20051;-63
2023/10/04 07:03:03;;;;;;;4.30;2.42;;;10.30;99.90;;;;;;4890956;29;20068;-63
2023/10/04 07:05:35;;;;;;;5.13;3.25;;;10.30;99.90;;;;;;4897549;29;20511;-63
2023/10/04 07:08:05;;;;;;;5.65;2.90;;;10.30;99.90;;;;;;4893643;29;20056;-63
2023/10/04 07:10:33;;;;;;;4.43;2.45;;;10.50;99.90;;;;;;4885729;29;20083;-63
2023/10/04 07:13:02;;;;;;;5.22;2.45;;;10.70;99.90;;;;;;4888203;29;20044;-63
2023/10/04 07:15:30;;;;;;;4.97;2.58;;;10.90;99.90;;;;;;4896738;29;20055;-63
2023/10/04 07:17:59;;;;;;;6.95;2.30;;;11.10;99.90;;;;;;4870515;29;20089;-63
2023/10/04 07:20:26;;;;;;;4.45;2.03;;;11.40;99.90;;;;;;4888375;29;20049;-63
2023/10/04 07:22:58;;;;;;;6.05;2.55;;;11.50;99.90;;;;;;4889659;29;20072;-63
2023/10/04 07:25:26;;;;;;;4.43;2.45;;;11.60;99.90;;;;;;4887504;29;20045;-63
2023/10/04 07:27:55;;;;;;;7.03;2.83;;;11.70;99.90;;;;;;4888117;29;20055;-63
2023/10/04 07:30:22;;;;;;;5.95;2.60;;;11.90;99.90;;;;;;4892626;29;20045;-63
2023/10/04 07:32:52;;;;;;;3.72;2.35;;;12.00;99.90;;;;;;4889339;29;20037;-63
2023/10/04 07:35:23;;;;;;;4.70;2.85;;;12.00;99.90;;;;;;4896759;29;20083;-63
2023/10/04 07:37:50;;;;;;;7.25;2.50;;;12.10;99.90;;;;;;4891495;29;20801;-63
2023/10/04 07:40:17;;;;;;;5.95;2.70;;;12.20;99.90;;;;;;4898393;29;20045;-63
2023/10/04 07:42:48;;;;;;;;;;;12.30;99.90;;;;;;4891013;29;20044;-63
2023/10/04 07:45:18;;;;;;;5.65;2.97;;;12.20;99.90;;;;;;4895261;29;19923;-63
2023/10/04 07:47:45;;;;;;;9.32;3.00;;;12.20;99.90;;;;;;4887541;29;20085;-63
2023/10/04 07:50:15;;;;;;;5.35;2.85;;;12.00;99.90;;;;;;4897045;29;20048;-63
2023/10/04 07:52:44;;;;;;;6.30;3.08;;;11.90;99.90;;;;;;4892189;29;20542;-63
2023/10/04 07:55:18;;;;;;;5.72;3.05;;;11.70;99.90;;;;;;4887441;29;20059;-63
2023/10/04 07:57:52;;;;;;;5.90;2.90;;;11.60;99.90;;;;;;4889034;29;20040;-63
2023/10/04 08:00:20;;;;;;;5.93;2.70;;;11.50;99.90;;;;;;4882613;29;20063;-63
2023/10/04 08:02:51;;;;;;;6.35;3.03;;;11.50;99.90;;;;;;4897642;29;20494;-63
2023/10/04 08:05:31;;;;;;;5.43;3.05;;;11.40;99.90;;;;;;4889046;29;20045;-63
2023/10/04 08:08:00;;;;;;;6.88;3.60;;;11.40;99.90;;;;;;4889945;29;20041;-63
2023/10/04 08:10:35;;;;;;;5.97;3.38;;;11.40;99.90;;;;;;4888174;29;20076;-63
2023/10/04 08:13:04;;;;;;;7.30;3.38;;;11.40;99.90;;;;;;4896952;29;20108;-63
2023/10/04 08:15:35;;;;;;;9.52;3.40;;;11.40;99.90;;;;;;4896942;29;20049;-62
2023/10/04 08:18:03;;;;;;;5.18;2.60;;;11.50;99.90;;;;;;4889552;29;20519;-63
2023/10/04 08:20:32;;;;;;;5.32;2.80;;;11.60;99.90;;;;;;4889487;29;20435;-63
2023/10/04 08:23:02;;;;;;;6.13;2.58;;;11.80;99.90;;;;;;4893482;29;20276;-64
2023/10/04 08:25:31;;;;;;;3.85;2.53;;;12.10;99.90;;;;;;4890141;29;20044;-63
2023/10/04 08:27:59;;;;;;;5.28;2.60;;;12.50;99.90;;;;;;4890214;29;20056;-63
2023/10/04 08:30:27;;;;;;;3.97;1.98;;;13.00;99.90;;;;;;4891673;29;20108;-63
2023/10/04 08:32:54;;;;;;;;;;;13.30;99.90;;;;;;4898465;29;20100;-63
2023/10/04 08:35:33;;;;;;;4.82;1.98;;;13.50;99.90;;;;;;4897353;29;19923;-63
2023/10/04 08:38:06;;;;;;;5.30;2.40;;;13.70;99.90;;;;;;4893403;29;20126;-63
2023/10/04 08:40:38;;;;;;;4.55;2.03;;;14.00;99.90;;;;;;4893682;29;20056;-63
2023/10/04 08:43:07;;;;;;;4.93;2.13;;;14.30;99.90;;;;;;4892977;29;20447;-64
2023/10/04 08:45:34;;;;;;;4.80;2.13;;;14.50;99.90;;;;;;4887010;29;20057;-63
2023/10/04 08:48:02;;;;;;;6.63;1.73;;;14.70;99.90;;;;;;4888409;29;20045;-63
2023/10/04 08:50:36;;;;;;;6.15;2.13;;;14.70;99.90;;;;;;4887899;29;20059;-63
2023/10/04 08:53:32;;;;;;;6.28;2.28;;;14.80;99.90;;;;;;4896706;29;20123;-63
2023/10/04 08:56:08;;;;;;;5.35;2.22;;;14.80;99.90;;;;;;4889144;29;20431;-64
2023/10/04 08:58:36;;;;;;;5.75;2.10;;;14.90;99.90;;;;;;4892154;29;20087;-63
2023/10/04 09:01:05;;;;;;;4.32;2.30;;;14.90;99.90;;;;;;4893051;29;20056;-63
2023/10/04 09:03:33;;;;;;;5.30;2.20;;;15.00;99.90;;;;;;4893327;29;20136;-63
2023/10/04 09:06:03;;;;;;;6.85;1.98;;;15.10;99.90;;;;;;4897358;29;20064;-63
2023/10/04 09:08:31;;;;;;;5.22;2.13;;;15.00;99.90;;;;;;4894369;29;20128;-64
2023/10/04 09:10:58;;;;;;;6.15;2.50;;;15.20;99.90;;;;;;4888654;29;20120;-64
2023/10/04 09:13:25;;;;;;;;;;;15.40;99.90;;;;;;4895472;29;20100;-64
2023/10/04 09:15:52;;;;;;;4.30;1.70;;;15.70;99.90;;;;;;4896711;29;19963;-64
2023/10/04 09:18:26;;;;;;;4.22;1.85;;;15.70;99.90;;;;;;4887791;29;20040;-63
2023/10/04 09:20:54;;;;;;;4.90;2.13;;;15.80;99.90;;;;;;4891098;29;20112;-63
2023/10/04 09:23:23;;;;;;;;;;;15.80;99.90;;;;;;4896223;29;20052;-63
2023/10/04 09:25:55;;;;;;;3.65;1.65;;;15.90;99.90;;;;;;4888897;29;19924;-64
2023/10/04 09:28:39;;;;;;;5.68;1.90;;;15.90;99.90;;;;;;4888862;29;20052;-64
2023/10/04 09:31:15;;;;;;;3.58;2.10;;;16.10;99.90;;;;;;4881898;29;20099;-64
2023/10/04 09:33:43;;;;;;;3.97;1.48;;;16.10;99.90;;;;;;4888003;29;20447;-64
2023/10/04 09:36:10;;;;;;;5.10;2.03;;;16.10;99.90;;;;;;4885760;29;20045;-64
2023/10/04 09:38:39;;;;;;;3.70;1.75;;;16.10;99.90;;;;;;4885849;29;20045;-64
2023/10/04 09:41:09;;;;;;;5.03;2.08;;;16.10;99.90;;;;;;4896711;29;20076;-63
2023/10/04 09:43:39;;;;;;;5.95;2.33;;;16.10;99.90;;;;;;4895951;29;20045;-64
2023/10/04 09:46:10;;;;;;;4.97;1.80;;;16.10;99.90;;;;;;4892312;29;20049;-63
2023/10/04 09:48:44;;;;;;;3.60;1.73;;;16.10;99.90;;;;;;4891889;29;20052;-64
2023/10/04 09:51:12;;;;;;;3.72;2.20;;;16.20;99.90;;;;;;4891774;29;20041;-64
2023/10/04 09:53:40;;;;;;;5.57;1.95;;;16.30;99.90;;;;;;4891152;29;20498;-63
2023/10/04 09:56:11;;;;;;;5.28;2.08;;;16.40;99.90;;;;;;4896306;29;20041;-63
2023/10/04 09:58:48;;;;;;;3.75;1.90;;;16.20;99.90;;;;;;4886667;29;20466;-64
2023/10/04 10:01:17;;;;;;;6.13;1.73;;;16.20;99.90;;;;;;4888579;29;20044;-63
2023/10/04 10:03:55;;;;;;;5.43;2.15;;;16.20;99.90;;;;;;4894262;29;20805;-63
2023/10/04 10:06:23;;;;;;;6.07;2.03;;;16.40;99.90;;;;;;4890160;29;20057;-63
2023/10/04 10:08:58;;;;;;;4.65;1.58;;;16.30;99.90;;;;;;4885965;29;20419;-64
2023/10/04 10:11:26;;;;;;;4.90;1.83;;;16.30;99.90;;;;;;4892160;29;20516;-63
2023/10/04 10:13:54;;;;;;;3.90;1.90;;;16.20;99.90;;;;;;4894940;29;20052;-64
2023/10/04 10:16:23;;;;;;;7.03;2.30;;;16.20;99.90;;;;;;4894604;29;20048;-63
2023/10/04 10:18:52;;;;;;;3.67;1.80;;;16.30;99.90;;;;;;4895681;29;20387;-63
2023/10/04 10:21:19;;;;;;;5.15;1.73;;;16.30;99.90;;;;;;4889850;29;20055;-62
2023/10/04 10:24:03;;;;;;;;;;;16.40;99.90;;;;;;4886514;29;20517;-63
2023/10/04 10:26:33;;;;;;;3.55;1.63;;;16.60;99.90;;;;;;4885366;29;19965;-63
2023/10/04 10:29:04;;;;;;;2.85;1.50;;;16.60;99.90;;;;;;4887496;29;20133;-63
2023/10/04 10:31:31;;;;;;;3.53;1.83;;;16.70;99.90;;;;;;4888327;29;20225;-63
2023/10/04 10:34:02;;;;;;;6.13;1.95;;;16.70;99.90;;;;;;4887190;29;20041;-63
2023/10/04 10:36:31;;;;;;;3.88;2.00;;;16.90;99.90;;;;;;4896150;29;20471;-63
2023/10/04 10:38:59;;;;;;;3.53;1.80;;;17.00;99.90;;;;;;4884933;29;20052;-64
2023/10/04 10:41:29;;;;;;;4.07;1.83;;;17.20;99.90;;;;;;4884995;29;20068;-63
2023/10/04 10:44:23;;;;;;;3.58;1.83;;;17.10;99.90;;;;;;4893313;29;20044;-63
2023/10/04 10:46:58;;;;;;;3.38;1.70;;;17.00;99.90;;;;;;4887619;29;20053;-63
2023/10/04 10:50:12;;;;;;;4.05;1.52;;;17.00;99.90;;;;;;4892875;29;20056;-64
2023/10/04 10:52:41;;;;;;;5.78;2.05;;;17.10;99.90;;;;;;4884575;29;20053;-63
2023/10/04 10:55:17;;;;;;;4.60;1.77;;;17.20;99.90;;;;;;4884163;29;20056;-64
2023/10/04 10:57:47;;;;;;;4.43;1.60;;;17.20;99.90;;;;;;4894517;29;20052;-63
2023/10/04 11:02:52;;;;;;;5.22;1.63;;;17.50;99.90;;;;;;4870331;29;20104;-63
2023/10/04 11:05:21;;;;;;;3.10;1.60;;;17.60;99.90;;;;;;4884641;29;20041;-64
2023/10/04 11:07:51;;;;;;;4.47;1.38;;;17.60;99.90;;;;;;4893011;29;20053;-63
2023/10/04 11:10:19;;;;;;;6.70;1.58;;;17.60;99.90;;;;;;4887342;29;20059;-64
2023/10/04 11:12:47;;;;;;;3.03;1.45;;;17.70;99.90;;;;;;4887562;29;20144;-64
2023/10/04 11:15:20;;;;;;;6.45;1.90;;;17.70;99.90;;;;;;4885546;29;20049;-64
2023/10/04 11:17:47;;;;;;;4.82;1.60;;;17.80;99.90;;;;;;4894932;29;20045;-63
2023/10/04 11:20:17;;;;;;;3.55;1.67;;;17.90;99.90;;;;;;4884490;29;20097;-63
2023/10/04 11:22:45;;;;;;;3.58;1.75;;;18.00;99.90;;;;;;4895269;29;20041;-63
2023/10/04 11:25:16;;;;;;;5.30;2.00;;;18.10;99.90;;;;;;4883686;29;20414;-64
2023/10/04 11:27:46;;;;;;;4.43;2.00;;;18.20;99.90;;;;;;4891724;29;20041;-64
2023/10/04 11:30:16;;;;;;;4.90;2.00;;;18.00;99.90;;;;;;4894285;29;20127;-63
2023/10/04 11:32:47;;;;;;;5.68;1.60;;;18.00;99.90;;;;;;4895101;29;20068;-63
2023/10/04 11:35:21;;;;;;;4.28;1.67;;;18.10;99.90;;;;;;4880590;29;20153;-64
2023/10/04 11:37:49;;;;;;;7.90;2.28;;;18.10;99.90;;;;;;4887878;29;20128;-63
2023/10/04 11:40:26;;;;;;;4.97;1.90;;;18.30;99.90;;;;;;4891007;29;20087;-63
2023/10/04 11:43:01;;;;;;;3.42;1.60;;;18.40;99.90;;;;;;4898787;29;20454;-64
2023/10/04 11:45:29;;;;;;;8.57;2.15;;;18.40;99.90;;;;;;4887736;29;20848;-64
2023/10/04 11:48:01;;;;;;;4.57;2.17;;;18.40;99.90;;;;;;4898302;29;20044;-63
2023/10/04 11:50:45;;;;;;;4.53;1.80;;;18.40;99.90;;;;;;4890288;29;20052;-64
2023/10/04 11:53:13;;;;;;;3.03;1.65;;;18.40;99.90;;;;;;4883356;29;20491;-63
2023/10/04 11:55:40;;;;;;;6.85;2.05;;;18.40;99.90;;;;;;4890789;29;20040;-63
2023/10/04 11:58:10;;;;;;;3.22;1.52;;;18.40;99.90;;;;;;4880130;29;20494;-64
2023/10/04 12:00:37;;;;;;;4.05;1.65;;;18.40;99.90;;;;;;4896973;29;20045;-64
2023/10/04 12:03:06;;;;;;;;;;;18.40;99.90;;;;;;4895726;29;20059;-64
2023/10/04 12:05:33;;;;;;;5.35;1.58;;;18.40;99.90;;;;;;4892889;29;20116;-64
2023/10/04 12:08:01;;;;;;;3.70;1.95;;;18.40;99.90;;;;;;4889070;29;20047;-62
2023/10/04 12:10:27;;;;;;;3.33;1.63;;;18.40;99.90;;;;;;4898019;29;20127;-63
2023/10/04 12:12:57;;;;;;;3.92;1.77;;;18.40;99.90;;;;;;4888426;29;20380;-63
2023/10/04 12:15:25;;;;;;;5.43;2.03;;;18.40;99.90;;;;;;4892099;29;20036;-63
2023/10/04 12:17:52;;;;;;;3.78;1.85;;;18.50;99.90;;;;;;4890258;29;20136;-64
2023/10/04 12:20:20;;;;;;;6.28;1.77;;;18.50;99.90;;;;;;4893690;29;20406;-64
2023/10/04 12:22:49;;;;;;;3.45;1.33;;;18.50;99.90;;;;;;4890825;29;20084;-64
2023/10/04 12:25:15;;;;;;;4.82;1.63;;;18.50;99.90;;;;;;4889050;29;20055;-63
2023/10/04 12:27:44;;;;;;;2.42;1.55;;;18.50;99.90;;;;;;4897836;29;20064;-62
2023/10/04 12:30:14;;;;;;;2.85;1.48;;;18.50;99.90;;;;;;4888864;29;20072;-61
2023/10/04 12:32:41;;;;;;;4.28;1.73;;;18.50;99.90;;;;;;4890263;29;20040;-64
2023/10/04 12:35:08;;;;;;;4.18;1.50;;;18.50;99.90;;;;;;4896535;29;20063;-63
2023/10/04 12:37:34;;;;;;;4.60;1.98;;;18.40;99.90;;;;;;4897543;29;20439;-64
2023/10/04 12:40:04;;;;;;;4.45;1.98;;;18.30;99.90;;;;;;4888160;29;20044;-64
2023/10/04 12:42:31;;;;;;;5.38;1.50;;;18.20;99.90;;;;;;4886693;29;20363;-64
2023/10/04 12:44:58;;;;;;;4.43;1.85;;;18.20;99.90;;;;;;4895264;29;20100;-63
2023/10/04 12:47:25;;;;;;;4.15;2.28;;;18.10;99.90;;;;;;4889551;29;20052;-64
2023/10/04 12:49:53;;;;;;;4.43;1.73;;;18.10;99.90;;;;;;4889245;29;20391;-63
2023/10/04 12:52:24;;;;;;;4.35;1.73;;;18.20;99.90;;;;;;4888941;29;20068;-63
2023/10/04 12:54:51;;;;;;;6.70;2.15;;;18.20;99.90;;;;;;4897695;29;20068;-63
2023/10/04 12:57:18;;;;;;;4.78;1.52;;;18.30;99.90;;;;;;4875876;29;20072;-64
2023/10/04 12:59:45;;;;;;;5.63;2.05;;;18.30;99.90;;;;;;4897217;29;20040;-62
2023/10/04 13:02:12;;;;;;;6.55;1.65;;;18.30;99.90;;;;;;4896225;29;20060;-64
2023/10/04 13:04:39;;;;;;;5.70;1.83;;;18.40;99.90;;;;;;4888078;29;20558;-63
2023/10/04 13:07:07;;;;;;;3.13;1.70;;;18.40;99.90;;;;;;4891515;29;20439;-64
2023/10/04 13:09:34;;;;;;;4.50;1.60;;;18.50;99.90;;;;;;4891825;29;20084;-64